sensor_id;sensor_type;location;lat;lon;timestamp;temperature;humidity
60965;DHT22;46834;51.100;6.886;2022-12-20T00:01:00;10.00;54.30
60965;DHT22;46834;51.100;6.886;2022-12-20T00:03:25;10.00;54.30
60965;DHT22;46834;51.100;6.886;2022-12-20T00:05:51;10.00;54.30
60965;DHT22;46834;51.100;6.886;2022-12-20T00:08:17;10.00;54.30
60965;DHT22;46834;51.100;6.886;2022-12-20T00:10:44;10.00;54.30
60965;DHT22;46834;51.100;6.886;2022-12-20T00:13:10;10.00;54.20
60965;DHT22;46834;51.100;6.886;2022-12-20T00:15:37;10.00;54.20
60965;DHT22;46834;51.100;6.886;2022-12-20T00:18:03;10.00;54.20
60965;DHT22;46834;51.100;6.886;2022-12-20T00:20:29;10.00;54.20
60965;DHT22;46834;51.100;6.886;2022-12-20T00:22:55;10.10;54.30
60965;DHT22;46834;51.100;6.886;2022-12-20T00:25:21;10.10;54.30
60965;DHT22;46834;51.100;6.886;2022-12-20T00:27:48;10.10;54.30
60965;DHT22;46834;51.100;6.886;2022-12-20T00:30:15;10.10;54.30
60965;DHT22;46834;51.100;6.886;2022-12-20T00:32:41;10.10;54.30
60965;DHT22;46834;51.100;6.886;2022-12-20T00:35:08;10.10;54.20
60965;DHT22;46834;51.100;6.886;2022-12-20T00:37:34;10.10;54.20
60965;DHT22;46834;51.100;6.886;2022-12-20T00:39:59;10.20;54.30
60965;DHT22;46834;51.100;6.886;2022-12-20T00:42:25;10.20;54.30
60965;DHT22;46834;51.100;6.886;2022-12-20T00:44:51;10.20;54.30
60965;DHT22;46834;51.100;6.886;2022-12-20T00:47:16;10.20;54.90
60965;DHT22;46834;51.100;6.886;2022-12-20T00:49:42;10.20;54.30
60965;DHT22;46834;51.100;6.886;2022-12-20T00:52:08;10.20;54.90
60965;DHT22;46834;51.100;6.886;2022-12-20T00:54:33;10.30;54.30
60965;DHT22;46834;51.100;6.886;2022-12-20T00:56:59;10.30;54.30
60965;DHT22;46834;51.100;6.886;2022-12-20T00:59:25;10.30;54.30
60965;DHT22;46834;51.100;6.886;2022-12-20T01:01:50;10.30;54.30
60965;DHT22;46834;51.100;6.886;2022-12-20T01:04:16;10.30;54.30
60965;DHT22;46834;51.100;6.886;2022-12-20T01:06:42;10.40;54.30
60965;DHT22;46834;51.100;6.886;2022-12-20T01:09:09;10.40;54.30
60965;DHT22;46834;51.100;6.886;2022-12-20T01:11:36;10.40;54.30
60965;DHT22;46834;51.100;6.886;2022-12-20T01:14:14;10.40;54.20
60965;DHT22;46834;51.100;6.886;2022-12-20T01:16:43;10.40;54.20
60965;DHT22;46834;51.100;6.886;2022-12-20T01:19:11;10.40;54.10
60965;DHT22;46834;51.100;6.886;2022-12-20T01:21:39;10.40;54.20
60965;DHT22;46834;51.100;6.886;2022-12-20T01:24:10;10.40;54.10
60965;DHT22;46834;51.100;6.886;2022-12-20T01:26:40;10.40;54.00
60965;DHT22;46834;51.100;6.886;2022-12-20T01:29:05;10.40;54.00
60965;DHT22;46834;51.100;6.886;2022-12-20T01:31:32;10.40;54.00
60965;DHT22;46834;51.100;6.886;2022-12-20T01:33:58;10.30;53.90
60965;DHT22;46834;51.100;6.886;2022-12-20T01:36:27;10.30;53.90
60965;DHT22;46834;51.100;6.886;2022-12-20T01:38:56;10.30;53.90
60965;DHT22;46834;51.100;6.886;2022-12-20T01:41:23;10.20;53.90
60965;DHT22;46834;51.100;6.886;2022-12-20T01:44:01;10.20;53.90
60965;DHT22;46834;51.100;6.886;2022-12-20T01:46:51;10.20;54.00
60965;DHT22;46834;51.100;6.886;2022-12-20T01:49:31;10.20;54.00
60965;DHT22;46834;51.100;6.886;2022-12-20T01:52:11;10.20;54.10
60965;DHT22;46834;51.100;6.886;2022-12-20T01:54:48;10.20;54.10
60965;DHT22;46834;51.100;6.886;2022-12-20T01:57:25;10.10;54.00
60965;DHT22;46834;51.100;6.886;2022-12-20T01:59:56;10.10;54.10
60965;DHT22;46834;51.100;6.886;2022-12-20T02:02:23;10.10;54.10
60965;DHT22;46834;51.100;6.886;2022-12-20T02:04:49;10.10;54.10
60965;DHT22;46834;51.100;6.886;2022-12-20T02:07:20;10.10;54.20
60965;DHT22;46834;51.100;6.886;2022-12-20T02:09:51;10.10;54.20
60965;DHT22;46834;51.100;6.886;2022-12-20T02:12:26;10.10;54.20
60965;DHT22;46834;51.100;6.886;2022-12-20T02:15:02;10.10;54.20
60965;DHT22;46834;51.100;6.886;2022-12-20T02:17:43;10.10;54.20
60965;DHT22;46834;51.100;6.886;2022-12-20T02:20:41;10.20;54.30
60965;DHT22;46834;51.100;6.886;2022-12-20T02:26:22;10.20;54.30
60965;DHT22;46834;51.100;6.886;2022-12-20T02:32:29;10.20;54.20
60965;DHT22;46834;51.100;6.886;2022-12-20T02:35:22;10.20;54.20
60965;DHT22;46834;51.100;6.886;2022-12-20T02:37:54;10.20;54.20
60965;DHT22;46834;51.100;6.886;2022-12-20T02:40:38;10.20;54.20
60965;DHT22;46834;51.100;6.886;2022-12-20T02:43:08;10.20;54.20
60965;DHT22;46834;51.100;6.886;2022-12-20T02:45:56;10.10;54.10
60965;DHT22;46834;51.100;6.886;2022-12-20T02:48:24;10.10;54.10
60965;DHT22;46834;51.100;6.886;2022-12-20T02:50:55;10.10;54.10
60965;DHT22;46834;51.100;6.886;2022-12-20T02:53:23;10.10;54.10
60965;DHT22;46834;51.100;6.886;2022-12-20T02:55:57;10.00;54.00
60965;DHT22;46834;51.100;6.886;2022-12-20T02:58:46;10.00;54.10
60965;DHT22;46834;51.100;6.886;2022-12-20T03:01:32;10.00;54.10
60965;DHT22;46834;51.100;6.886;2022-12-20T03:04:02;9.90;54.00
60965;DHT22;46834;51.100;6.886;2022-12-20T03:06:30;9.90;53.90
60965;DHT22;46834;51.100;6.886;2022-12-20T03:08:56;9.80;54.00
60965;DHT22;46834;51.100;6.886;2022-12-20T03:11:22;9.80;54.00
60965;DHT22;46834;51.100;6.886;2022-12-20T03:13:47;9.70;54.30
60965;DHT22;46834;51.100;6.886;2022-12-20T03:16:13;9.70;54.10
60965;DHT22;46834;51.100;6.886;2022-12-20T03:18:39;9.70;54.10
60965;DHT22;46834;51.100;6.886;2022-12-20T03:21:05;9.70;54.10
60965;DHT22;46834;51.100;6.886;2022-12-20T03:23:31;9.60;54.10
60965;DHT22;46834;51.100;6.886;2022-12-20T03:25:57;9.60;54.10
60965;DHT22;46834;51.100;6.886;2022-12-20T03:28:23;9.60;54.20
60965;DHT22;46834;51.100;6.886;2022-12-20T03:30:48;9.50;54.20
60965;DHT22;46834;51.100;6.886;2022-12-20T03:33:14;9.50;54.20
60965;DHT22;46834;51.100;6.886;2022-12-20T03:35:40;9.50;54.30
60965;DHT22;46834;51.100;6.886;2022-12-20T03:38:06;9.50;54.30
60965;DHT22;46834;51.100;6.886;2022-12-20T03:40:32;9.40;54.30
60965;DHT22;46834;51.100;6.886;2022-12-20T03:42:57;9.40;54.30
60965;DHT22;46834;51.100;6.886;2022-12-20T03:45:23;9.40;54.40
60965;DHT22;46834;51.100;6.886;2022-12-20T03:47:49;9.40;54.40
60965;DHT22;46834;51.100;6.886;2022-12-20T03:50:15;9.40;54.50
60965;DHT22;46834;51.100;6.886;2022-12-20T03:52:40;9.40;54.60
60965;DHT22;46834;51.100;6.886;2022-12-20T03:55:07;9.40;54.60
60965;DHT22;46834;51.100;6.886;2022-12-20T03:57:34;9.30;54.50
60965;DHT22;46834;51.100;6.886;2022-12-20T04:00:00;9.30;54.60
60965;DHT22;46834;51.100;6.886;2022-12-20T04:02:26;9.30;54.60
60965;DHT22;46834;51.100;6.886;2022-12-20T04:04:52;9.30;54.70
60965;DHT22;46834;51.100;6.886;2022-12-20T04:07:17;9.30;54.70
60965;DHT22;46834;51.100;6.886;2022-12-20T04:09:43;9.30;54.70
60965;DHT22;46834;51.100;6.886;2022-12-20T04:12:09;9.30;54.80
60965;DHT22;46834;51.100;6.886;2022-12-20T04:14:34;9.30;54.80
60965;DHT22;46834;51.100;6.886;2022-12-20T04:17:01;9.30;54.80
60965;DHT22;46834;51.100;6.886;2022-12-20T04:19:27;9.30;54.90
60965;DHT22;46834;51.100;6.886;2022-12-20T04:21:53;9.30;54.90
60965;DHT22;46834;51.100;6.886;2022-12-20T04:24:20;9.30;55.00
60965;DHT22;46834;51.100;6.886;2022-12-20T04:26:46;9.20;54.90
60965;DHT22;46834;51.100;6.886;2022-12-20T04:29:13;9.20;54.90
60965;DHT22;46834;51.100;6.886;2022-12-20T04:31:39;9.20;55.00
60965;DHT22;46834;51.100;6.886;2022-12-20T04:34:05;9.20;55.00
60965;DHT22;46834;51.100;6.886;2022-12-20T04:36:31;9.20;55.00
60965;DHT22;46834;51.100;6.886;2022-12-20T04:38:56;9.20;55.00
60965;DHT22;46834;51.100;6.886;2022-12-20T04:41:22;9.20;55.10
60965;DHT22;46834;51.100;6.886;2022-12-20T04:43:52;9.20;55.10
60965;DHT22;46834;51.100;6.886;2022-12-20T04:46:21;9.20;55.20
60965;DHT22;46834;51.100;6.886;2022-12-20T04:48:47;9.20;55.20
60965;DHT22;46834;51.100;6.886;2022-12-20T04:51:13;9.20;55.30
60965;DHT22;46834;51.100;6.886;2022-12-20T04:53:39;9.20;55.30
60965;DHT22;46834;51.100;6.886;2022-12-20T04:56:18;9.20;55.30
60965;DHT22;46834;51.100;6.886;2022-12-20T04:58:47;9.20;55.40
60965;DHT22;46834;51.100;6.886;2022-12-20T05:01:15;9.10;55.30
60965;DHT22;46834;51.100;6.886;2022-12-20T05:03:41;9.10;55.30
60965;DHT22;46834;51.100;6.886;2022-12-20T05:06:07;9.10;55.30
60965;DHT22;46834;51.100;6.886;2022-12-20T05:08:34;9.10;55.40
60965;DHT22;46834;51.100;6.886;2022-12-20T05:11:01;9.10;55.40
60965;DHT22;46834;51.100;6.886;2022-12-20T05:13:27;9.10;55.40
60965;DHT22;46834;51.100;6.886;2022-12-20T05:15:54;9.20;55.50
60965;DHT22;46834;51.100;6.886;2022-12-20T05:18:20;9.10;55.40
60965;DHT22;46834;51.100;6.886;2022-12-20T05:20:47;9.10;55.40
60965;DHT22;46834;51.100;6.886;2022-12-20T05:23:13;9.20;55.60
60965;DHT22;46834;51.100;6.886;2022-12-20T05:25:57;9.10;55.50
60965;DHT22;46834;51.100;6.886;2022-12-20T05:28:41;9.10;55.50
60965;DHT22;46834;51.100;6.886;2022-12-20T05:31:07;9.10;55.50
60965;DHT22;46834;51.100;6.886;2022-12-20T05:33:33;9.10;55.50
60965;DHT22;46834;51.100;6.886;2022-12-20T05:35:59;9.10;55.50
60965;DHT22;46834;51.100;6.886;2022-12-20T05:38:25;9.10;55.50
60965;DHT22;46834;51.100;6.886;2022-12-20T05:40:51;9.20;55.60
60965;DHT22;46834;51.100;6.886;2022-12-20T05:43:17;9.20;55.60
60965;DHT22;46834;51.100;6.886;2022-12-20T05:45:51;9.20;55.70
60965;DHT22;46834;51.100;6.886;2022-12-20T05:48:18;9.20;55.80
60965;DHT22;46834;51.100;6.886;2022-12-20T05:50:45;9.20;55.70
60965;DHT22;46834;51.100;6.886;2022-12-20T05:53:12;9.20;55.70
60965;DHT22;46834;51.100;6.886;2022-12-20T05:55:59;9.20;55.70
60965;DHT22;46834;51.100;6.886;2022-12-20T05:58:25;9.20;55.90
60965;DHT22;46834;51.100;6.886;2022-12-20T06:00:53;9.20;55.70
60965;DHT22;46834;51.100;6.886;2022-12-20T06:03:18;9.20;55.70
60965;DHT22;46834;51.100;6.886;2022-12-20T06:05:44;9.20;55.70
60965;DHT22;46834;51.100;6.886;2022-12-20T06:08:11;9.20;55.70
60965;DHT22;46834;51.100;6.886;2022-12-20T06:10:39;9.20;55.70
60965;DHT22;46834;51.100;6.886;2022-12-20T06:13:06;9.20;55.70
60965;DHT22;46834;51.100;6.886;2022-12-20T06:15:33;9.20;55.70
60965;DHT22;46834;51.100;6.886;2022-12-20T06:17:59;9.20;55.70
60965;DHT22;46834;51.100;6.886;2022-12-20T06:20:25;9.20;55.70
60965;DHT22;46834;51.100;6.886;2022-12-20T06:22:52;9.20;55.70
60965;DHT22;46834;51.100;6.886;2022-12-20T06:25:18;9.30;55.80
60965;DHT22;46834;51.100;6.886;2022-12-20T06:27:45;9.30;55.80
60965;DHT22;46834;51.100;6.886;2022-12-20T06:30:10;9.30;55.80
60965;DHT22;46834;51.100;6.886;2022-12-20T06:32:37;9.30;55.80
60965;DHT22;46834;51.100;6.886;2022-12-20T06:35:04;9.30;55.80
60965;DHT22;46834;51.100;6.886;2022-12-20T06:37:30;9.30;55.80
60965;DHT22;46834;51.100;6.886;2022-12-20T06:39:56;9.30;55.80
60965;DHT22;46834;51.100;6.886;2022-12-20T06:42:23;9.30;55.80
60965;DHT22;46834;51.100;6.886;2022-12-20T06:44:49;9.30;55.80
60965;DHT22;46834;51.100;6.886;2022-12-20T06:47:14;9.30;55.80
60965;DHT22;46834;51.100;6.886;2022-12-20T06:49:40;9.30;55.70
60965;DHT22;46834;51.100;6.886;2022-12-20T06:52:06;9.30;55.70
60965;DHT22;46834;51.100;6.886;2022-12-20T06:54:31;9.30;55.70
60965;DHT22;46834;51.100;6.886;2022-12-20T06:56:57;9.30;55.70
60965;DHT22;46834;51.100;6.886;2022-12-20T06:59:23;9.40;55.80
60965;DHT22;46834;51.100;6.886;2022-12-20T07:01:48;9.30;55.70
60965;DHT22;46834;51.100;6.886;2022-12-20T07:04:14;9.30;55.70
60965;DHT22;46834;51.100;6.886;2022-12-20T07:06:40;9.30;55.70
60965;DHT22;46834;51.100;6.886;2022-12-20T07:09:05;9.30;55.70
60965;DHT22;46834;51.100;6.886;2022-12-20T07:11:31;9.30;55.70
60965;DHT22;46834;51.100;6.886;2022-12-20T07:13:57;9.30;55.60
60965;DHT22;46834;51.100;6.886;2022-12-20T07:16:23;9.40;55.70
60965;DHT22;46834;51.100;6.886;2022-12-20T07:18:50;9.40;55.70
60965;DHT22;46834;51.100;6.886;2022-12-20T07:21:19;9.40;55.70
60965;DHT22;46834;51.100;6.886;2022-12-20T07:23:46;9.40;55.70
60965;DHT22;46834;51.100;6.886;2022-12-20T07:26:12;9.40;55.70
60965;DHT22;46834;51.100;6.886;2022-12-20T07:28:39;9.40;55.60
60965;DHT22;46834;51.100;6.886;2022-12-20T07:31:05;9.40;55.70
60965;DHT22;46834;51.100;6.886;2022-12-20T07:33:32;9.40;55.60
60965;DHT22;46834;51.100;6.886;2022-12-20T07:36:06;9.40;55.60
60965;DHT22;46834;51.100;6.886;2022-12-20T07:38:35;9.40;55.70
60965;DHT22;46834;51.100;6.886;2022-12-20T07:41:12;9.40;56.20
60965;DHT22;46834;51.100;6.886;2022-12-20T07:43:40;9.40;55.80
60965;DHT22;46834;51.100;6.886;2022-12-20T07:46:07;9.40;55.60
60965;DHT22;46834;51.100;6.886;2022-12-20T07:48:33;9.40;55.70
60965;DHT22;46834;51.100;6.886;2022-12-20T07:51:11;9.40;55.70
60965;DHT22;46834;51.100;6.886;2022-12-20T07:53:49;9.40;55.80
60965;DHT22;46834;51.100;6.886;2022-12-20T07:56:19;9.40;55.80
60965;DHT22;46834;51.100;6.886;2022-12-20T07:58:48;9.40;55.70
60965;DHT22;46834;51.100;6.886;2022-12-20T08:01:19;9.50;55.90
60965;DHT22;46834;51.100;6.886;2022-12-20T08:03:49;9.40;55.70
60965;DHT22;46834;51.100;6.886;2022-12-20T08:06:17;9.40;55.80
60965;DHT22;46834;51.100;6.886;2022-12-20T08:08:48;9.40;55.70
60965;DHT22;46834;51.100;6.886;2022-12-20T08:11:17;9.40;55.70
60965;DHT22;46834;51.100;6.886;2022-12-20T08:13:47;9.40;55.60
60965;DHT22;46834;51.100;6.886;2022-12-20T08:16:14;9.40;55.70
60965;DHT22;46834;51.100;6.886;2022-12-20T08:18:39;9.40;55.70
60965;DHT22;46834;51.100;6.886;2022-12-20T08:21:05;9.50;55.80
60965;DHT22;46834;51.100;6.886;2022-12-20T08:23:32;9.50;55.80
60965;DHT22;46834;51.100;6.886;2022-12-20T08:26:00;9.50;55.80
60965;DHT22;46834;51.100;6.886;2022-12-20T08:28:26;9.50;55.80
60965;DHT22;46834;51.100;6.886;2022-12-20T08:30:52;9.50;55.80
60965;DHT22;46834;51.100;6.886;2022-12-20T08:33:24;9.50;55.80
60965;DHT22;46834;51.100;6.886;2022-12-20T08:35:59;9.50;55.70
60965;DHT22;46834;51.100;6.886;2022-12-20T08:38:27;9.50;55.80
60965;DHT22;46834;51.100;6.886;2022-12-20T08:40:55;9.50;55.70
60965;DHT22;46834;51.100;6.886;2022-12-20T08:43:26;9.50;55.70
60965;DHT22;46834;51.100;6.886;2022-12-20T08:45:54;9.50;55.70
60965;DHT22;46834;51.100;6.886;2022-12-20T08:48:21;9.60;55.80
60965;DHT22;46834;51.100;6.886;2022-12-20T08:50:52;9.60;55.80
60965;DHT22;46834;51.100;6.886;2022-12-20T08:53:21;9.60;55.80
60965;DHT22;46834;51.100;6.886;2022-12-20T08:55:47;9.60;55.80
60965;DHT22;46834;51.100;6.886;2022-12-20T08:58:13;9.60;55.80
60965;DHT22;46834;51.100;6.886;2022-12-20T09:00:40;9.60;55.80
60965;DHT22;46834;51.100;6.886;2022-12-20T09:03:06;9.60;55.70
60965;DHT22;46834;51.100;6.886;2022-12-20T09:05:32;9.70;55.80
60965;DHT22;46834;51.100;6.886;2022-12-20T09:07:58;9.70;55.80
60965;DHT22;46834;51.100;6.886;2022-12-20T09:10:24;9.70;55.80
60965;DHT22;46834;51.100;6.886;2022-12-20T09:12:50;9.70;55.70
60965;DHT22;46834;51.100;6.886;2022-12-20T09:15:15;9.70;55.70
60965;DHT22;46834;51.100;6.886;2022-12-20T09:17:41;9.70;55.70
60965;DHT22;46834;51.100;6.886;2022-12-20T09:20:07;9.70;55.70
60965;DHT22;46834;51.100;6.886;2022-12-20T09:22:33;9.70;55.60
60965;DHT22;46834;51.100;6.886;2022-12-20T09:24:59;9.80;55.70
60965;DHT22;46834;51.100;6.886;2022-12-20T09:27:24;9.80;55.60
60965;DHT22;46834;51.100;6.886;2022-12-20T09:29:50;9.80;55.60
60965;DHT22;46834;51.100;6.886;2022-12-20T09:32:16;9.80;55.60
60965;DHT22;46834;51.100;6.886;2022-12-20T09:34:41;9.80;55.60
60965;DHT22;46834;51.100;6.886;2022-12-20T09:37:07;9.80;55.60
60965;DHT22;46834;51.100;6.886;2022-12-20T09:39:33;9.80;55.60
60965;DHT22;46834;51.100;6.886;2022-12-20T09:41:58;9.80;55.60
60965;DHT22;46834;51.100;6.886;2022-12-20T09:44:31;9.80;55.60
60965;DHT22;46834;51.100;6.886;2022-12-20T09:47:08;9.80;55.70
60965;DHT22;46834;51.100;6.886;2022-12-20T09:49:42;9.80;55.70
60965;DHT22;46834;51.100;6.886;2022-12-20T10:00:49;9.90;55.80
60965;DHT22;46834;51.100;6.886;2022-12-20T10:03:25;9.90;55.70
60965;DHT22;46834;51.100;6.886;2022-12-20T10:09:18;9.90;55.80
60965;DHT22;46834;51.100;6.886;2022-12-20T10:12:24;10.00;55.80
60965;DHT22;46834;51.100;6.886;2022-12-20T10:15:19;10.00;55.90
60965;DHT22;46834;51.100;6.886;2022-12-20T10:20:59;10.00;55.80
60965;DHT22;46834;51.100;6.886;2022-12-20T10:23:43;10.00;55.80
60965;DHT22;46834;51.100;6.886;2022-12-20T10:26:28;10.10;55.90
60965;DHT22;46834;51.100;6.886;2022-12-20T10:28:54;10.10;55.90
60965;DHT22;46834;51.100;6.886;2022-12-20T10:31:20;10.10;55.90
60965;DHT22;46834;51.100;6.886;2022-12-20T10:33:46;10.10;55.90
60965;DHT22;46834;51.100;6.886;2022-12-20T10:36:29;10.20;56.00
60965;DHT22;46834;51.100;6.886;2022-12-20T10:38:59;10.20;56.10
60965;DHT22;46834;51.100;6.886;2022-12-20T10:44:30;10.20;56.60
60965;DHT22;46834;51.100;6.886;2022-12-20T10:46:58;10.20;56.00
60965;DHT22;46834;51.100;6.886;2022-12-20T10:49:38;10.20;56.00
60965;DHT22;46834;51.100;6.886;2022-12-20T10:54:43;10.30;56.00
60965;DHT22;46834;51.100;6.886;2022-12-20T10:59:44;10.30;56.00
60965;DHT22;46834;51.100;6.886;2022-12-20T11:07:59;10.40;56.10
60965;DHT22;46834;51.100;6.886;2022-12-20T11:11:10;10.40;56.10
60965;DHT22;46834;51.100;6.886;2022-12-20T11:13:45;10.50;56.20
60965;DHT22;46834;51.100;6.886;2022-12-20T11:16:33;10.50;56.20
60965;DHT22;46834;51.100;6.886;2022-12-20T11:42:04;10.70;55.80
60965;DHT22;46834;51.100;6.886;2022-12-20T11:44:48;10.70;55.80
60965;DHT22;46834;51.100;6.886;2022-12-20T11:47:43;10.70;55.80
60965;DHT22;46834;51.100;6.886;2022-12-20T11:53:38;10.70;55.70
60965;DHT22;46834;51.100;6.886;2022-12-20T11:56:16;10.70;55.80
60965;DHT22;46834;51.100;6.886;2022-12-20T11:59:06;10.80;55.80
60965;DHT22;46834;51.100;6.886;2022-12-20T12:02:22;10.80;55.80
60965;DHT22;46834;51.100;6.886;2022-12-20T12:04:59;10.80;55.70
60965;DHT22;46834;51.100;6.886;2022-12-20T12:07:31;10.80;55.70
60965;DHT22;46834;51.100;6.886;2022-12-20T12:10:19;10.80;55.70
60965;DHT22;46834;51.100;6.886;2022-12-20T12:12:56;10.80;55.70
60965;DHT22;46834;51.100;6.886;2022-12-20T12:15:33;10.90;55.70
60965;DHT22;46834;51.100;6.886;2022-12-20T12:18:16;10.90;55.70
60965;DHT22;46834;51.100;6.886;2022-12-20T12:29:14;10.90;55.60
60965;DHT22;46834;51.100;6.886;2022-12-20T12:32:10;10.90;55.50
60965;DHT22;46834;51.100;6.886;2022-12-20T12:41:16;11.00;55.60
60965;DHT22;46834;51.100;6.886;2022-12-20T12:46:48;11.00;55.60
60965;DHT22;46834;51.100;6.886;2022-12-20T12:49:21;11.00;55.60
60965;DHT22;46834;51.100;6.886;2022-12-20T12:51:59;11.00;55.70
60965;DHT22;46834;51.100;6.886;2022-12-20T12:54:36;11.00;55.80
60965;DHT22;46834;51.100;6.886;2022-12-20T12:57:13;11.00;55.90
60965;DHT22;46834;51.100;6.886;2022-12-20T12:59:47;11.00;55.90
60965;DHT22;46834;51.100;6.886;2022-12-20T13:17:49;11.00;55.90
60965;DHT22;46834;51.100;6.886;2022-12-20T13:20:24;11.00;55.90
60965;DHT22;46834;51.100;6.886;2022-12-20T13:33:53;10.90;56.00
60965;DHT22;46834;51.100;6.886;2022-12-20T13:39:02;10.90;56.00
60965;DHT22;46834;51.100;6.886;2022-12-20T13:42:12;10.90;55.90
60965;DHT22;46834;51.100;6.886;2022-12-20T13:44:47;10.80;55.90
60965;DHT22;46834;51.100;6.886;2022-12-20T13:47:39;10.80;55.90
60965;DHT22;46834;51.100;6.886;2022-12-20T13:50:27;10.80;56.00
60965;DHT22;46834;51.100;6.886;2022-12-20T13:52:59;10.80;56.00
60965;DHT22;46834;51.100;6.886;2022-12-20T13:55:38;10.70;55.80
60965;DHT22;46834;51.100;6.886;2022-12-20T13:58:08;10.70;56.00
60965;DHT22;46834;51.100;6.886;2022-12-20T14:00:37;10.70;55.90
60965;DHT22;46834;51.100;6.886;2022-12-20T14:03:04;10.70;56.00
60965;DHT22;46834;51.100;6.886;2022-12-20T14:05:38;10.60;56.50
60965;DHT22;46834;51.100;6.886;2022-12-20T14:08:16;10.60;56.00
60965;DHT22;46834;51.100;6.886;2022-12-20T14:10:45;10.70;56.20
60965;DHT22;46834;51.100;6.886;2022-12-20T14:13:25;10.60;56.00
60965;DHT22;46834;51.100;6.886;2022-12-20T14:15:53;10.60;56.20
60965;DHT22;46834;51.100;6.886;2022-12-20T14:18:24;10.60;56.20
60965;DHT22;46834;51.100;6.886;2022-12-20T14:21:02;10.60;56.20
60965;DHT22;46834;51.100;6.886;2022-12-20T14:23:41;10.60;56.20
60965;DHT22;46834;51.100;6.886;2022-12-20T14:26:14;10.60;56.40
60965;DHT22;46834;51.100;6.886;2022-12-20T14:28:45;10.50;56.20
60965;DHT22;46834;51.100;6.886;2022-12-20T14:36:39;10.50;56.40
60965;DHT22;46834;51.100;6.886;2022-12-20T14:44:36;10.50;56.40
60965;DHT22;46834;51.100;6.886;2022-12-20T14:47:23;10.40;56.20
60965;DHT22;46834;51.100;6.886;2022-12-20T14:49:56;10.50;56.70
60965;DHT22;46834;51.100;6.886;2022-12-20T14:52:40;10.40;56.40
60965;DHT22;46834;51.100;6.886;2022-12-20T14:55:17;10.50;56.70
60965;DHT22;46834;51.100;6.886;2022-12-20T14:57:48;10.40;56.60
60965;DHT22;46834;51.100;6.886;2022-12-20T15:08:27;10.40;56.70
60965;DHT22;46834;51.100;6.886;2022-12-20T15:13:42;10.40;56.70
60965;DHT22;46834;51.100;6.886;2022-12-20T15:16:17;10.40;56.60
60965;DHT22;46834;51.100;6.886;2022-12-20T15:18:48;10.40;56.70
60965;DHT22;46834;51.100;6.886;2022-12-20T15:21:33;10.40;56.70
60965;DHT22;46834;51.100;6.886;2022-12-20T15:24:03;10.40;56.60
60965;DHT22;46834;51.100;6.886;2022-12-20T15:26:34;10.40;56.60
60965;DHT22;46834;51.100;6.886;2022-12-20T15:29:00;10.40;56.60
60965;DHT22;46834;51.100;6.886;2022-12-20T15:31:27;10.40;56.60
60965;DHT22;46834;51.100;6.886;2022-12-20T15:33:54;10.30;56.50
60965;DHT22;46834;51.100;6.886;2022-12-20T15:36:26;10.30;56.50
60965;DHT22;46834;51.100;6.886;2022-12-20T15:38:54;10.30;56.60
60965;DHT22;46834;51.100;6.886;2022-12-20T15:41:26;10.30;56.60
60965;DHT22;46834;51.100;6.886;2022-12-20T15:43:56;10.30;56.60
60965;DHT22;46834;51.100;6.886;2022-12-20T15:46:24;10.30;56.60
60965;DHT22;46834;51.100;6.886;2022-12-20T15:48:51;10.40;56.70
60965;DHT22;46834;51.100;6.886;2022-12-20T15:53:59;10.30;56.80
60965;DHT22;46834;51.100;6.886;2022-12-20T15:56:28;10.30;56.70
60965;DHT22;46834;51.100;6.886;2022-12-20T15:58:55;10.30;56.70
60965;DHT22;46834;51.100;6.886;2022-12-20T16:01:27;10.30;56.70
60965;DHT22;46834;51.100;6.886;2022-12-20T16:03:55;10.30;56.80
60965;DHT22;46834;51.100;6.886;2022-12-20T16:06:21;10.30;56.70
60965;DHT22;46834;51.100;6.886;2022-12-20T16:08:47;10.30;56.70
60965;DHT22;46834;51.100;6.886;2022-12-20T16:11:24;10.30;56.70
60965;DHT22;46834;51.100;6.886;2022-12-20T16:13:52;10.40;56.90
60965;DHT22;46834;51.100;6.886;2022-12-20T16:16:30;10.40;56.70
60965;DHT22;46834;51.100;6.886;2022-12-20T16:18:58;10.30;56.80
60965;DHT22;46834;51.100;6.886;2022-12-20T16:21:28;10.30;56.60
60965;DHT22;46834;51.100;6.886;2022-12-20T16:23:56;10.30;56.70
60965;DHT22;46834;51.100;6.886;2022-12-20T16:26:24;10.30;56.70
60965;DHT22;46834;51.100;6.886;2022-12-20T16:28:52;10.30;56.70
60965;DHT22;46834;51.100;6.886;2022-12-20T16:31:23;10.30;56.70
60965;DHT22;46834;51.100;6.886;2022-12-20T16:33:51;10.30;56.80
60965;DHT22;46834;51.100;6.886;2022-12-20T16:36:17;10.30;56.80
60965;DHT22;46834;51.100;6.886;2022-12-20T16:38:43;10.30;56.80
60965;DHT22;46834;51.100;6.886;2022-12-20T16:41:20;10.30;56.80
60965;DHT22;46834;51.100;6.886;2022-12-20T16:43:48;10.30;56.90
60965;DHT22;46834;51.100;6.886;2022-12-20T16:46:17;10.30;56.80
60965;DHT22;46834;51.100;6.886;2022-12-20T16:48:44;10.30;56.80
60965;DHT22;46834;51.100;6.886;2022-12-20T16:51:26;10.30;56.80
60965;DHT22;46834;51.100;6.886;2022-12-20T16:53:54;10.30;56.90
60965;DHT22;46834;51.100;6.886;2022-12-20T16:56:28;10.40;56.90
60965;DHT22;46834;51.100;6.886;2022-12-20T16:58:55;10.30;56.80
60965;DHT22;46834;51.100;6.886;2022-12-20T17:01:25;10.30;56.80
60965;DHT22;46834;51.100;6.886;2022-12-20T17:03:54;10.40;56.90
60965;DHT22;46834;51.100;6.886;2022-12-20T17:06:20;10.30;56.70
60965;DHT22;46834;51.100;6.886;2022-12-20T17:08:47;10.30;56.70
60965;DHT22;46834;51.100;6.886;2022-12-20T17:13:55;10.30;56.70
60965;DHT22;46834;51.100;6.886;2022-12-20T17:16:21;10.30;56.80
60965;DHT22;46834;51.100;6.886;2022-12-20T17:18:49;10.30;56.80
60965;DHT22;46834;51.100;6.886;2022-12-20T17:24:04;10.40;57.10
60965;DHT22;46834;51.100;6.886;2022-12-20T17:26:32;10.30;56.80
60965;DHT22;46834;51.100;6.886;2022-12-20T17:28:58;10.40;56.90
60965;DHT22;46834;51.100;6.886;2022-12-20T17:31:32;10.30;56.80
60965;DHT22;46834;51.100;6.886;2022-12-20T17:36:50;10.40;57.00
60965;DHT22;46834;51.100;6.886;2022-12-20T17:39:18;10.40;56.90
60965;DHT22;46834;51.100;6.886;2022-12-20T17:41:45;10.30;56.90
60965;DHT22;46834;51.100;6.886;2022-12-20T17:44:26;10.40;57.00
60965;DHT22;46834;51.100;6.886;2022-12-20T17:46:53;10.40;57.10
60965;DHT22;46834;51.100;6.886;2022-12-20T17:49:20;10.40;57.00
60965;DHT22;46834;51.100;6.886;2022-12-20T17:51:48;10.40;57.00
60965;DHT22;46834;51.100;6.886;2022-12-20T17:54:24;10.40;57.00
60965;DHT22;46834;51.100;6.886;2022-12-20T17:56:52;10.40;57.10
60965;DHT22;46834;51.100;6.886;2022-12-20T17:59:18;10.40;57.00
60965;DHT22;46834;51.100;6.886;2022-12-20T18:01:45;10.40;57.00
60965;DHT22;46834;51.100;6.886;2022-12-20T18:04:13;10.40;57.10
60965;DHT22;46834;51.100;6.886;2022-12-20T18:06:42;10.40;57.10
60965;DHT22;46834;51.100;6.886;2022-12-20T18:09:17;10.40;57.10
60965;DHT22;46834;51.100;6.886;2022-12-20T18:11:45;10.50;57.20
60965;DHT22;46834;51.100;6.886;2022-12-20T18:14:11;10.40;57.00
60965;DHT22;46834;51.100;6.886;2022-12-20T18:16:37;10.40;57.00
60965;DHT22;46834;51.100;6.886;2022-12-20T18:19:04;10.40;57.10